Triathlon du Gardon - 03/07/2016

Distance M par équipe

63 participants classés


Retour au Sommaire - Signaler une erreur - Faire défiler





1 2 /fin /tout

page suivante ->

Pl Do. Nom - Surname Club - Team TEMPS - Time EQUIPE P1 Tps1 Vit1 P2 Tps2 Vit2 P3 Tps3 Vit3
1 1023 FIOL OLIVIER MJC PLAN DE CUQUES TRIATHLON 2:36:17.25 MIT 3 0:22:59.1 3,9 1 1:28:26.9 27,1 16 0:43:43.7 13,7
2 1021 CARTON FABIEN MADE IN TRI 2:36:17.70 MIT 2 0:22:52.9 3,9 3 1:28:29.2 27,1 17 0:43:45.5 13,7
3 1022 COTTRET GREG MADE IN TRI 2:36:17.83 MIT 1 0:22:50.9 3,9 2 1:28:27.0 27,1 15 0:43:42.3 13,7
4 1105 PIMENTA SIMON ISSY TRIATHLON 2:45:12.81 ALLEZ QU IL VA FAIRE BEAU !! 16 0:24:26.1 3,7 11 1:34:08.9 25,5 11 0:43:37.8 13,8
5 1103 DANNECKER ERIC ECG PIGNAN 2:45:12.89 ALLEZ QU IL VA FAIRE BEAU !! 14 0:24:25.6 3,7 9 1:33:56.9 25,5 13 0:43:38.6 13,7
6 1102 BESSET CHRISTOPHE ECG PIGNAN 2:45:12.94 ALLEZ QU IL VA FAIRE BEAU !! 17 0:24:35.4 3,7 6 1:33:36.5 25,6 10 0:43:37.6 13,8
7 1104 PEREIRA THIERRY TRIRUN FRONTIGNAN 2:45:13.04 ALLEZ QU IL VA FAIRE BEAU !! 15 0:24:26.0 3,7 8 1:33:55.4 25,6 14 0:43:38.9 13,7
8 1101 AUCLAIR FLORENCE TRIRUN FRONTIGNAN 2:45:13.10 ALLEZ QU IL VA FAIRE BEAU !! 13 0:24:24.8 3,7 10 1:34:06.8 25,5 12 0:43:38.3 13,7
9 1032 VERDU REGIS VELO CLUB SALINDRES 2:46:16.72 Salindres triathlon 1 23 0:26:05.4 3,4 4 1:33:30.5 25,7 9 0:43:22.3 13,8
10 1033 VIVES JEAN MICHEL VELO CLUB SALINDRES 2:46:16.77 Salindres triathlon 1 22 0:25:53.5 3,5 7 1:33:55.2 25,6 21 0:44:16.5 13,6
11 1031 RUIZ FLORENT VELO CLUB SALINDRES 2:46:17.48 Salindres triathlon 1 24 0:26:07.7 3,4 5 1:33:34.5 25,6 8 0:43:21.0 13,8
12 1071 HERBAU PIERRE-EMMANUEL crocos d'airain 2:46:55.74 Les Starks 12 0:24:01.2 3,7 16 1:35:52.3 25,0 5 0:43:11.1 13,9
13 1074 VINCENT ARNAUD crocs d'airain 2:46:55.79 Les Starks 9 0:23:59.6 3,8 19 1:35:55.7 25,0 6 0:43:11.3 13,9
14 1073 POIGANT MIKAEL   2:46:55.91 Les Starks 10 0:24:00.4 3,7 18 1:35:53.7 25,0 7 0:43:12.0 13,9
15 1072 MARTINEZ OLIVIER crocs d'airain 2:46:56.22 Les Starks 11 0:24:01.0 3,7 17 1:35:53.4 25,0 4 0:43:10.8 13,9
16 1163 CAICEDO CARLOS   2:49:34.84 BOULE DE FEU 29 0:26:46.2 3,4 30 1:38:14.4 24,4 3 0:41:13.5 14,6
17 1161 DEBIAUNE FRANCK   2:49:35.06 BOULE DE FEU 25 0:26:31.5 3,4 28 1:37:58.9 24,5 2 0:41:13.1 14,6
18 1162 YZSBSCH YEVGUENIY   2:49:35.21 BOULE DE FEU 26 0:26:32.3 3,4 29 1:38:10.9 24,4 1 0:41:12.7 14,6
19 1052 DE MARCO SANDRINE croco d'airain 2:49:43.70 les chats maigres 8 0:23:24.9 3,8 27 1:37:41.9 24,6 33 0:47:11.7 12,7
20 150 FAIVRE NICOLAS croco d'airain 2:49:43.74 les chats maigres 4 0:23:12.9 3,9 24 1:37:36.9 24,6 30 0:47:09.4 12,7
21 1051 BENOIT VINCENT croco d'airain 2:49:43.96 les chats maigres 7 0:23:21.1 3,9 25 1:37:38.5 24,6 32 0:47:11.3 12,7
22 1053 LARGUIER LAURENT croco d'airain 2:49:44.28 les chats maigres 5 0:23:13.7 3,9 26 1:37:39.7 24,6 31 0:47:09.6 12,7
23 1061 CHALLOT ERIC MONTPELLIER AGGLO TRIATHLON 2:51:21.09 Les sixties 30 0:26:54.8 3,3 13 1:34:56.3 25,3 22 0:45:48.4 13,1
24 1064 GUIPPONI JEAN CHRISTOPHE MAUGUIO CARNON TRIATHLON 2:51:21.09 Les sixties 28 0:26:44.0 3,4 14 1:34:59.4 25,3 23 0:45:48.7 13,1
25 1063 DUTHOIT OLIVIER   2:51:21.75 Les sixties 31 0:26:56.1 3,3 12 1:34:39.3 25,4 24 0:45:48.9 13,1
26 1062 DAURIAT BRUNO Maugui Carnon Triathlon 2:51:22.25 Les sixties 32 0:27:00.6 3,3 15 1:35:03.6 25,2 25 0:45:50.4 13,1
27 1054 PALISSE SERGE croco d'airain 2:52:40.47 les chats maigres 6 0:23:20.0 3,9 23 1:37:36.1 24,6 45 0:50:04.3 12,0
28 1114 PEREZ VINCENT MAUGUIO CARNON TRIATHLON 2:56:38.51 La team MCT 18 0:25:12.7 3,6 34 1:41:36.2 23,6 29 0:46:34.1 12,9
29 1111 BERGER PATRICE MAUGUIO CARNON TRIATHLON 2:56:38.65 La team MCT 20 0:25:14.7 3,6 32 1:41:06.0 23,7 27 0:46:22.3 12,9
30 1112 DALVERNY FLORENT MAUGUIO CARNON TRIATHLON 2:56:38.69 La team MCT 21 0:25:15.3 3,6 33 1:41:06.3 23,7 26 0:46:21.6 12,9
31 1115 REYNAUD SONIA MAUGUIO CARNON TRIATHLON 2:56:38.77 La team MCT 19 0:25:14.0 3,6 31 1:40:57.4 23,8 28 0:46:23.1 12,9
32 1042 DELORME FABRICE VELO CLUB SALINDRES 2:59:41.03 Salindres triathlon 2 39 0:29:07.0 3,1 20 1:36:56.6 24,8 48 0:50:11.0 12,0
33 1043 MASSEBEUF DENIS VELO CLUB SALINDRES 2:59:41.18 Salindres triathlon 2 38 0:29:06.7 3,1 21 1:36:58.4 24,7 47 0:50:10.8 12,0
34 1041 DAL CERRO JÉRÔME VELO CLUB SALINDRES 2:59:41.29 Salindres triathlon 2 40 0:29:08.4 3,1 22 1:36:58.5 24,7 46 0:50:10.4 12,0
35 1141 CAMINADE PIERRE Crocos d'airain nîmes triathlon 3:07:20.75 Team Crocodile D'UnTri 49 0:32:41.7 2,8 36 1:46:58.6 22,4 18 0:44:05.9 13,6
36 1142 COMBE RICHARD CROCO D'AIRAIN NÎMES TRIATHLON 3:07:20.79 Team Crocodile D'UnTri 50 0:32:46.5 2,7 37 1:47:01.4 22,4 19 0:44:06.0 13,6
37 1144 GEAY PIERRE CROCO D'AIRAIN NÎMES TRIATHLON 3:07:20.93 Team Crocodile D'UnTri 53 0:32:49.4 2,7 35 1:46:58.5 22,4 20 0:44:06.9 13,6
38 1152 RATKOVIC PETER   3:09:39.43 FEU PATATE 35 0:28:56.3 3,1 46 1:48:46.0 22,1 35 0:47:27.7 12,6
39 1151 BATHE STEVEN   3:09:39.58 FEU PATATE 34 0:28:55.1 3,1 45 1:48:43.2 22,1 34 0:47:26.9 12,6
40 1153 NOUSKA NAPEJ   3:09:39.58 FEU PATATE 33 0:28:49.1 3,1 47 1:48:48.5 22,1 36 0:47:28.8 12,6
41 1131 BOUREZ KÉVIN   3:12:04.61 les vaugard       48 1:49:16.2 22,0 38 0:47:47.9 12,6
42 1135 TABAREAU ETIENNE MISTRAL TRIATH CLUB ORANGE 3:12:04.66 les vaugard 48 0:30:47.7 2,9 49 1:50:07.1 21,8 37 0:47:47.1 12,6
43 1134 PASSCHIER JOACHIM MISTRAL TRIATH CLUB ORANGE 3:12:05.24 les vaugard 44 0:30:07.9 3,0 52 1:50:21.9 21,7 39 0:47:50.0 12,5
44 1145 PARMIGIANI IVAN CROCO D`AIRAIN NIMES TRIATHLON 3:13:13.30 Team Crocodile D'UnTri 52 0:32:48.9 2,7 39 1:47:04.4 22,4 44 0:49:56.7 12,0
45 1133 FONTENEAU LAURENT MISTRAL TRIATH CLUB ORANGE 3:13:50.45 les vaugard 46 0:30:36.7 2,9 50 1:50:17.4 21,8 43 0:49:33.2 12,1
46 1123 GALLOCCHIO JOEL NIMES croco d airains 3:13:54.96 LES CROCO-TAUZORES 55 0:32:51.5 2,7 41 1:47:31.5 22,3 40 0:48:27.0 12,4
47 1121 CHAMBON PHILIPPE NIMES croco d airains 3:13:55.04 LES CROCO-TAUZORES 56 0:32:54.1 2,7 43 1:47:50.1 22,3 42 0:48:28.1 12,4
48 1125 RASSIER CHRISTOPHE NIMES croco d airains 3:13:55.25 LES CROCO-TAUZORES 54 0:32:49.6 2,7 44 1:47:51.8 22,3 41 0:48:27.9 12,4
49 1132 CAYUELA JEAN YVES MISTRAL TRIATH CLUB 3:14:57.40 les vaugard 47 0:30:38.7 2,9 51 1:50:19.4 21,8 49 0:50:40.0 11,8
50 1143 FIRMIN SEBASTIEN CROCO D'AIRAIN NÎMES TRIATHLON 3:20:39.19 Team Crocodile D'UnTri 51 0:32:48.0 2,7 38 1:47:03.2 22,4 56 0:57:23.8 10,5

Aucun commentaires pour le moment, donnez votre avis, vos impressions avant, pendant! et après la course

Déjà membre? Identifiez-vous pour commenter l'épreuve ou créer un compte